Strona główna
METAR-TAF:

METAR-TAF

Lotnisko :

Port lotniczy Dakar

Dakar, Senegal

Szerokość geograficzna: 14-44N, Długość geograficzna: 017-30W, wysokość: 27 m

Aktualna obserwacja pogody

Raport powstał 48 minut temu, godzina 00:00 UTC
Wiatr 8 kt od zachód
Temperatura 24°C
Wilgotność 78%
Ciśnienie 1015 hPa
Widzialność: 8000 m
Przerywane chmury na wysokości 1300 ft

METAR: GOOY 210000Z 28008KT 8000 BKN013 24/20 Q1015

czas: 00:48 (00:48 UTC)

Prognoza

Raport powstał 1 godzina i 18 minut temu, godzina 23:30 UTC
Prognoza ważna od 21 godzina 00 UTC do 22 godzina 06 UTC
Wiatr 6 kt od zachód
Widzialność 10 km lub więcej
Przerywane chmury na wysokości 1400 ft
Stopniowe zmiany
od 21 godzina 04 UTC do 21 godzina 06 UTC
Rozproszone chmury na wysokości 1300 ft

TAF: GOOY 202330Z 2100/2206 26006KT 9999 BKN014 BECMG 2104/2106 SCT013

Obserwacja i prognoza pogody dla ponad 4000 lotnisk (raport METAR i TAF).

Dostępne stacje oznaczono żółtymi i czerwonymi punktami na mapie.

Najedź kursorem aby zobaczyć nazwę stacji.

Kliknij aby zobaczyć obserwacje i prognozy pogody.

Aby zmienić mapę: kliknij na zielony przycisk z czarnym krzyżykiem, aby powiększyć; na zielony przycisk z myślnikiem, aby pomniejszyć; na zielone strzałki, aby przejść do map sąsiednich.


METAR-TAF: